Time;durP1;ratioP1;P1;durP2;ratioP2;P2;SDS_P1;SDS_P2;PMS_P1;PMS_P2;Temp;Humidity;BMP_temperature;BMP_pressure;BME280_temperature;BME280_humidity;BME280_pressure;Samples;Min_cycle;Max_cycle;Signal;HPM_P1;HPM_P2
2021/09/29 00:00:39;;;;;;;13.45;5.63;;;;;;;18.75;62.55;99145.63;5054550;28;20255;-49
2021/09/29 00:03:05;;;;;;;16.45;10.43;;;;;;;19.22;60.80;99139.16;5054510;28;20025;-49
2021/09/29 00:05:31;;;;;;;9.13;4.88;;;;;;;19.39;60.04;99149.75;5053096;28;20058;-49
2021/09/29 00:07:57;;;;;;;8.85;3.88;;;;;;;19.06;59.77;99146.94;5054416;28;20455;-49
2021/09/29 00:10:22;;;;;;;18.33;11.10;;;;;;;18.54;60.93;99144.50;5054338;28;20044;-49
2021/09/29 00:12:48;;;;;;;6.35;4.63;;;;;;;18.19;61.88;99142.03;5054315;28;20064;-49
2021/09/29 00:15:14;;;;;;;20.15;14.10;;;;;;;18.35;63.03;99157.19;5053703;28;20514;-49
2021/09/29 00:17:42;;;;;;;16.52;7.18;;;;;;;18.87;62.12;99161.53;5052881;28;20495;-49
2021/09/29 00:20:10;;;;;;;13.68;5.25;;;;;;;19.40;60.61;99164.66;5052827;28;20503;-49
2021/09/29 00:22:36;;;;;;;7.55;2.72;;;;;;;19.40;59.68;99168.16;5052772;28;20644;-49
2021/09/29 00:25:04;;;;;;;12.27;5.30;;;;;;;19.30;60.20;99171.47;5051463;28;20045;-49
2021/09/29 00:27:29;;;;;;;9.93;5.05;;;;;;;19.62;59.84;99178.81;5053831;28;20474;-48
2021/09/29 00:29:59;;;;;;;9.93;3.67;;;;;;;19.84;58.71;99180.69;5052624;28;20056;-49
2021/09/29 00:32:25;;;;;;;18.10;7.32;;;;;;;19.69;58.85;99175.97;5054075;28;20514;-49
2021/09/29 00:34:51;;;;;;;15.57;8.48;;;;;;;19.72;59.13;99168.31;5054119;28;20060;-48
2021/09/29 00:37:16;;;;;;;11.57;5.30;;;;;;;20.10;58.84;99160.44;5052469;28;20025;-48
2021/09/29 00:39:42;;;;;;;14.15;4.47;;;;;;;20.46;57.69;99163.47;5053830;28;20021;-48
2021/09/29 00:42:08;;;;;;;9.52;3.10;;;;;;;20.62;56.96;99164.44;5053669;28;20124;-48
2021/09/29 00:44:34;;;;;;;9.18;3.30;;;;;;;20.53;56.45;99156.88;5053686;28;20547;-49
2021/09/29 00:47:00;;;;;;;5.40;2.45;;;;;;;20.35;56.70;99165.25;5053631;28;20139;-49
2021/09/29 00:49:26;;;;;;;5.95;2.28;;;;;;;20.11;57.00;99165.53;5053623;28;20029;-49
2021/09/29 00:51:52;;;;;;;11.00;3.55;;;;;;;19.91;57.71;99170.66;5053475;28;20028;-48
2021/09/29 00:54:18;;;;;;;8.98;3.83;;;;;;;20.09;57.84;99162.31;5053525;28;20032;-48
2021/09/29 00:56:46;;;;;;;11.90;2.78;;;;;;;20.27;57.23;99176.38;5053462;28;20070;-49
2021/09/29 00:59:12;;;;;;;9.00;2.40;;;;;;;20.12;56.93;99169.84;5053491;28;20040;-48
2021/09/29 01:01:38;;;;;;;11.15;4.03;;;;;;;19.82;57.65;99183.63;5052058;28;20033;-48
2021/09/29 01:04:04;;;;;;;89.13;68.80;;;;;;;19.85;58.37;99174.31;5053279;28;20107;-48
2021/09/29 01:06:47;;;;;;;42.95;15.35;;;;;;;20.26;57.62;99167.56;5053234;28;20021;-48
2021/09/29 01:09:25;;;;;;;13.70;6.43;;;;;;;20.53;56.77;99174.75;5053293;28;20044;-48
2021/09/29 01:12:10;;;;;;;15.13;4.50;;;;;;;20.69;56.40;99181.03;5053154;28;20032;-48
2021/09/29 01:14:48;;;;;;;11.45;4.65;;;;;;;20.75;55.86;99166.69;5053162;28;20534;-48
2021/09/29 01:17:17;;;;;;;14.43;4.43;;;;;;;20.73;55.85;99164.25;5051890;28;20029;-48
2021/09/29 01:19:57;;;;;;;12.48;3.60;;;;;;;20.43;56.02;99156.00;5053061;28;20029;-49
2021/09/29 01:22:41;;;;;;;7.70;2.92;;;;;;;19.86;57.62;99146.63;5051778;28;20029;-48
2021/09/29 01:25:33;;;;;;;14.20;3.92;;;;;;;19.58;58.57;99156.41;5051445;28;20432;-48
2021/09/29 01:28:00;;;;;;;12.88;2.85;;;;;;;19.65;58.63;99172.97;5052807;28;20494;-48
2021/09/29 01:30:27;;;;;;;14.15;5.85;;;;;;;19.84;58.45;99170.84;5052734;28;20075;-48
2021/09/29 01:32:54;;;;;;;9.65;3.10;;;;;;;20.10;57.92;99173.78;5052702;28;20482;-48
2021/09/29 01:35:21;;;;;;;18.90;10.15;;;;;;;20.32;57.66;99171.06;5052615;28;20029;-48
2021/09/29 01:37:48;;;;;;;10.77;3.90;;;;;;;20.61;56.65;99162.84;5051408;28;20051;-48
2021/09/29 01:40:14;;;;;;;7.38;3.28;;;;;;;20.68;56.22;99163.41;5052510;28;20024;-49
2021/09/29 01:42:41;;;;;;;4.60;2.25;;;;;;;20.65;55.71;99161.28;5052618;28;20021;-48
2021/09/29 01:45:07;;;;;;;5.65;1.90;;;;;;;20.12;56.18;99147.69;5052555;28;20079;-49
2021/09/29 01:47:33;;;;;;;6.32;2.75;;;;;;;19.18;58.35;99159.34;5051226;28;20083;-49
2021/09/29 01:50:03;;;;;;;7.47;2.50;;;;;;;18.27;61.10;99154.94;5051133;28;20028;-49
2021/09/29 01:52:33;;;;;;;11.13;9.88;;;;;;;17.59;63.36;99160.00;5052325;28;20078;-48
2021/09/29 01:55:00;;;;;;;28.45;25.80;;;;;;;17.36;64.53;99160.84;5051111;28;20041;-48
2021/09/29 01:57:26;;;;;;;19.23;16.60;;;;;;;17.61;64.81;99165.09;5052284;28;20048;-48
2021/09/29 01:59:54;;;;;;;8.45;2.50;;;;;;;18.11;63.92;99172.44;5051005;28;20056;-48
2021/09/29 02:02:20;;;;;;;9.23;3.10;;;;;;;18.28;62.85;99175.16;5052254;28;20032;-48
2021/09/29 02:04:48;;;;;;;6.80;1.85;;;;;;;18.16;62.95;99176.00;5052185;28;20025;-48
2021/09/29 02:07:14;;;;;;;6.70;2.17;;;;;;;18.02;63.44;99173.88;5050797;28;20641;-49
2021/09/29 02:09:40;;;;;;;9.85;5.43;;;;;;;17.93;63.40;99174.25;5052389;28;20063;-48
2021/09/29 02:12:06;;;;;;;21.35;5.55;;;;;;;17.86;63.83;99175.44;5052023;28;20021;-48
2021/09/29 02:14:32;;;;;;;11.75;3.50;;;;;;;17.98;64.12;99175.41;5051984;28;20020;-48
2021/09/29 02:16:58;;;;;;;14.43;4.25;;;;;;;18.29;64.24;99176.75;5050669;28;20052;-48
2021/09/29 02:19:25;;;;;;;12.32;4.88;;;;;;;18.80;62.77;99167.03;5051986;28;20483;-48
2021/09/29 02:21:52;;;;;;;7.55;2.97;;;;;;;19.31;61.36;99169.63;5052160;28;20040;-48
2021/09/29 02:24:18;;;;;;;40.83;37.13;;;;;;;19.50;60.13;99172.81;5051617;28;20041;-48
2021/09/29 02:26:44;;;;;;;24.10;14.68;;;;;;;19.22;60.34;99174.56;5051901;28;20118;-48
2021/09/29 02:29:15;;;;;;;16.67;5.43;;;;;;;19.29;60.83;99175.19;5050562;28;20025;-48
2021/09/29 02:31:41;;;;;;;9.70;3.72;;;;;;;19.51;60.28;99175.19;5050473;28;20024;-48
2021/09/29 02:34:07;;;;;;;14.57;5.18;;;;;;;19.79;59.36;99177.97;5051782;28;20013;-48
2021/09/29 02:36:33;;;;;;;15.95;4.45;;;;;;;19.84;58.70;99178.84;5051768;28;20029;-49
2021/09/29 02:38:59;;;;;;;8.57;4.10;;;;;;;19.85;58.51;99177.78;5050414;28;20514;-48
2021/09/29 02:41:25;;;;;;;10.35;4.72;;;;;;;19.67;58.58;99176.19;5051681;28;20068;-48
2021/09/29 02:43:51;;;;;;;18.23;4.25;;;;;;;19.57;58.84;99176.09;5051721;28;20104;-48
2021/09/29 02:46:17;;;;;;;17.58;4.45;;;;;;;19.57;58.95;99181.41;5051354;28;20128;-48
2021/09/29 02:48:43;;;;;;;13.02;4.22;;;;;;;19.58;58.75;99183.03;5051353;28;20032;-48
2021/09/29 02:51:08;;;;;;;8.88;3.45;;;;;;;19.39;58.65;99189.69;5051562;28;20094;-48
2021/09/29 02:53:34;;;;;;;12.77;9.85;;;;;;;18.86;59.46;99190.00;5051644;28;20020;-48
2021/09/29 02:56:03;;;;;;;11.13;5.60;;;;;;;18.72;61.06;99193.97;5051564;28;20399;-48
2021/09/29 02:58:29;;;;;;;15.27;5.03;;;;;;;18.91;60.49;99190.09;5051602;28;20045;-48
2021/09/29 03:00:59;;;;;;;11.93;4.43;;;;;;;19.01;59.97;99181.44;5051592;28;20412;-48
2021/09/29 03:03:25;;;;;;;7.32;2.72;;;;;;;19.22;59.45;99185.22;5051606;28;20112;-48
2021/09/29 03:05:54;;;;;;;10.55;4.20;;;;;;;19.28;58.99;99189.56;5051521;28;20021;-49
2021/09/29 03:08:19;;;;;;;17.25;5.72;;;;;;;19.35;59.42;99194.69;5051730;28;20025;-48
2021/09/29 03:10:45;;;;;;;13.13;5.55;;;;;;;19.44;58.89;99187.91;5051482;28;20529;-48
2021/09/29 03:13:14;;;;;;;12.98;4.30;;;;;;;19.45;59.07;99186.03;5051350;28;20402;-48
2021/09/29 03:15:40;;;;;;;15.32;3.88;;;;;;;19.33;58.62;99194.94;5050116;28;20569;-49
2021/09/29 03:18:06;;;;;;;11.98;8.25;;;;;;;19.05;59.46;99200.38;5051422;28;20442;-49
2021/09/29 03:20:32;;;;;;;10.13;4.05;;;;;;;19.13;59.79;99197.28;5051379;28;20032;-48
2021/09/29 03:22:58;;;;;;;13.20;3.72;;;;;;;19.23;59.30;99197.44;5051289;28;20033;-48
2021/09/29 03:25:25;;;;;;;21.52;14.55;;;;;;;19.39;58.98;99203.00;5051033;28;20124;-48
2021/09/29 03:27:51;;;;;;;11.70;4.30;;;;;;;19.50;58.63;99202.09;5051314;28;20032;-48
2021/09/29 03:30:17;;;;;;;13.90;6.72;;;;;;;19.45;58.39;99202.00;5051266;28;20025;-48
2021/09/29 03:32:43;;;;;;;11.95;4.47;;;;;;;19.35;58.70;99208.78;5049905;28;20082;-48
2021/09/29 03:35:11;;;;;;;15.70;8.52;;;;;;;19.11;58.74;99210.03;5051223;28;20510;-48
2021/09/29 03:37:39;;;;;;;15.45;6.00;;;;;;;18.79;59.32;99215.09;5049868;28;20082;-48
2021/09/29 03:40:09;;;;;;;14.90;2.75;;;;;;;18.53;60.14;99207.50;5051113;28;20546;-49
2021/09/29 03:42:35;;;;;;;8.32;5.68;;;;;;;18.28;60.94;99213.16;5051129;28;20024;-48
2021/09/29 03:45:01;;;;;;;7.65;4.15;;;;;;;18.18;61.42;99210.31;5051116;28;20123;-48
2021/09/29 03:47:27;;;;;;;16.35;8.07;;;;;;;18.27;61.45;99206.25;5049772;28;20398;-48
2021/09/29 03:49:52;;;;;;;16.33;4.95;;;;;;;18.31;61.18;99214.53;5051054;28;20021;-49
2021/09/29 03:52:18;;;;;;;12.35;8.45;;;;;;;18.37;61.38;99210.91;5050956;28;20032;-49
2021/09/29 03:54:44;;;;;;;6.97;2.83;;;;;;;18.37;61.29;99208.25;5051078;28;20029;-48
2021/09/29 03:57:09;;;;;;;6.00;3.22;;;;;;;18.33;61.47;99207.13;5049633;28;20029;-48
2021/09/29 03:59:35;;;;;;;8.43;3.47;;;;;;;18.38;61.30;99215.19;5051235;28;20472;-48
2021/09/29 04:02:01;;;;;;;11.52;3.72;;;;;;;18.49;61.24;99217.00;5053239;28;20670;-48
2021/09/29 04:04:26;;;;;;;24.15;9.50;;;;;;;18.64;60.71;99215.66;5054759;28;20108;-48
2021/09/29 04:06:52;;;;;;;14.43;3.53;;;;;;;18.80;60.57;99222.88;5054470;28;20483;-48
2021/09/29 04:09:18;;;;;;;14.07;6.40;;;;;;;19.04;60.13;99222.72;5053070;28;20529;-48
2021/09/29 04:11:43;;;;;;;12.73;3.17;;;;;;;19.23;59.57;99224.06;5036372;28;20100;-48
2021/09/29 04:14:09;;;;;;;11.35;2.78;;;;;;;19.12;59.19;99225.78;5054321;28;20498;-48
2021/09/29 04:16:35;;;;;;;10.82;2.20;;;;;;;18.86;59.82;99226.41;5054224;28;20086;-49
2021/09/29 04:19:01;;;;;;;6.10;1.85;;;;;;;18.53;59.76;99218.13;5054241;28;20029;-48
2021/09/29 04:21:27;;;;;;;8.57;2.05;;;;;;;18.09;60.62;99217.84;5052886;28;20029;-48
2021/09/29 04:23:53;;;;;;;8.25;2.90;;;;;;;17.62;62.12;99217.94;5053537;28;20086;-49
2021/09/29 04:26:19;;;;;;;15.25;2.92;;;;;;;17.27;62.74;99218.75;5052775;28;20032;-48
2021/09/29 04:28:45;;;;;;;16.75;8.18;;;;;;;17.21;63.83;99213.59;5054088;28;20092;-48
2021/09/29 04:31:11;;;;;;;15.85;3.90;;;;;;;17.23;63.66;99220.25;5053892;28;20100;-48
2021/09/29 04:33:37;;;;;;;13.40;5.72;;;;;;;17.08;64.28;99226.03;5053924;28;20439;-48
2021/09/29 04:36:04;;;;;;;15.15;4.00;;;;;;;17.17;64.32;99227.28;5052531;28;20112;-48
2021/09/29 04:38:30;;;;;;;18.63;5.05;;;;;;;17.46;66.71;99229.25;5053856;28;20491;-48
2021/09/29 04:40:56;;;;;;;18.88;9.55;;;;;;;17.64;67.34;99234.41;5053821;28;20021;-49
2021/09/29 04:43:22;;;;;;;10.75;3.90;;;;;;;17.67;67.08;99236.63;5053776;28;20027;-48
2021/09/29 04:45:48;;;;;;;13.27;4.35;;;;;;;17.44;67.40;99240.09;5053692;28;20398;-48
2021/09/29 04:48:14;;;;;;;13.32;3.78;;;;;;;17.16;68.15;99238.13;5053625;28;20395;-48
2021/09/29 04:50:40;;;;;;;25.10;4.75;;;;;;;17.04;68.65;99242.59;5052316;28;20568;-49
2021/09/29 04:53:06;;;;;;;32.30;16.83;;;;;;;17.07;68.41;99240.31;5052189;28;20494;-49
2021/09/29 04:55:32;;;;;;;21.80;7.13;;;;;;;17.01;67.65;99238.59;5052241;28;20043;-48
2021/09/29 04:58:02;;;;;;;26.20;11.38;;;;;;;16.75;67.03;99245.06;5053512;28;20578;-48
2021/09/29 05:00:28;;;;;;;18.80;5.82;;;;;;;16.41;67.73;99242.06;5053474;28;20019;-48
2021/09/29 05:02:53;;;;;;;10.85;3.10;;;;;;;15.96;68.40;99247.75;5053458;28;20064;-50
2021/09/29 05:05:19;;;;;;;16.55;12.23;;;;;;;15.58;69.63;99248.72;5053317;28;20053;-51
2021/09/29 05:07:49;;;;;;;18.10;5.38;;;;;;;15.34;70.25;99243.25;5053382;28;20029;-51
2021/09/29 05:10:21;;;;;;;30.52;21.20;;;;;;;15.21;70.81;99242.53;5051458;28;20024;-51
2021/09/29 05:12:48;;;;;;;31.85;26.40;;;;;;;15.30;70.93;99244.69;5053173;28;20065;-51
2021/09/29 05:15:17;;;;;;;23.45;18.65;;;;;;;15.58;70.79;99254.00;5035269;28;20025;-51
2021/09/29 05:17:42;;;;;;;30.85;27.60;;;;;;;16.04;70.70;99247.44;5051852;28;20517;-51
2021/09/29 05:20:09;;;;;;;14.57;5.97;;;;;;;16.42;70.79;99248.16;5051678;28;20029;-52
2021/09/29 05:22:35;;;;;;;20.95;18.27;;;;;;;16.40;71.27;99258.19;5053006;28;20056;-51
2021/09/29 05:25:00;;;;;;;24.65;20.85;;;;;;;16.41;71.51;99252.66;5052495;28;20080;-51
2021/09/29 05:27:26;;;;;;;46.67;41.75;;;;;;;16.47;71.34;99254.41;5052937;28;20049;-51
2021/09/29 05:29:53;;;;;;;6.38;3.38;;;;;;;16.40;70.64;99256.38;5051530;28;20031;-51
2021/09/29 05:32:19;;;;;;;14.85;7.13;;;;;;;16.21;70.80;99257.41;5052681;28;20116;-51
2021/09/29 05:34:45;;;;;;;1079.25;747.65;;;;;;;16.10;71.02;99264.28;5051433;28;20029;-51
2021/09/29 05:37:11;;;;;;;617.30;555.00;;;;;;;16.06;70.86;99263.91;5051348;28;20104;-51
2021/09/29 05:39:36;;;;;;;398.02;361.27;;;;;;;16.13;70.62;99267.28;5051408;28;20021;-51
2021/09/29 05:42:03;;;;;;;357.40;320.55;;;;;;;16.17;69.46;99257.84;5051287;28;20106;-51
2021/09/29 05:44:29;;;;;;;344.55;311.75;;;;;;;16.24;68.49;99271.03;5052591;28;20029;-51
2021/09/29 05:46:55;;;;;;;139.40;124.72;;;;;;;16.30;67.50;99272.78;5052553;28;20491;-51
2021/09/29 05:49:21;;;;;;;55.47;50.05;;;;;;;16.37;67.12;99268.19;5051218;28;20410;-51
2021/09/29 05:51:47;;;;;;;33.78;30.15;;;;;;;16.48;66.66;99274.59;5051038;28;20024;-51
2021/09/29 05:54:13;;;;;;;15.15;5.75;;;;;;;16.54;66.00;99281.66;5052379;28;20032;-51
2021/09/29 05:56:40;;;;;;;8.88;3.30;;;;;;;16.43;65.68;99281.59;5052316;28;20061;-51
2021/09/29 05:59:06;;;;;;;10.90;3.13;;;;;;;16.10;66.06;99283.63;5051006;28;20052;-50
2021/09/29 06:01:32;;;;;;;14.38;4.13;;;;;;;15.83;66.74;99288.38;5052232;28;20053;-51
2021/09/29 06:03:58;;;;;;;14.15;4.95;;;;;;;15.77;67.32;99299.84;5052283;28;20032;-51
2021/09/29 06:06:24;;;;;;;15.32;3.03;;;;;;;15.79;66.98;99303.06;5050924;28;20029;-51
2021/09/29 06:08:49;;;;;;;11.90;3.47;;;;;;;15.81;67.10;99303.66;5052151;28;20377;-51
2021/09/29 06:11:15;;;;;;;11.23;3.70;;;;;;;16.04;66.88;99305.69;5052007;28;20029;-51
2021/09/29 06:13:41;;;;;;;11.95;4.25;;;;;;;16.44;65.77;99307.03;5052412;28;20032;-51
2021/09/29 06:16:10;;;;;;;46.97;6.78;;;;;;;16.70;64.99;99304.06;5052013;28;20025;-51
2021/09/29 06:18:37;;;;;;;39.97;9.07;;;;;;;17.00;63.70;99305.91;5050667;28;20457;-51
2021/09/29 06:21:07;;;;;;;40.25;6.43;;;;;;;17.05;62.97;99310.53;5051705;28;20503;-50
2021/09/29 06:23:34;;;;;;;33.90;4.63;;;;;;;16.83;62.90;99311.03;5051496;28;20546;-50
2021/09/29 06:26:02;;;;;;;8.93;2.67;;;;;;;16.72;63.25;99311.75;5051714;28;20415;-51
2021/09/29 06:28:34;;;;;;;19.15;5.82;;;;;;;17.03;62.82;99321.38;5051960;28;20021;-51
2021/09/29 06:31:00;;;;;;;13.48;2.63;;;;;;;18.33;59.66;99313.41;5051812;28;20083;-49
2021/09/29 06:33:26;;;;;;;20.98;4.65;;;;;;;19.45;57.01;99316.47;5051827;28;20516;-49
2021/09/29 06:35:52;;;;;;;24.40;5.32;;;;;;;20.24;53.94;99312.78;5051759;28;20027;-49
2021/09/29 06:38:18;;;;;;;30.40;6.72;;;;;;;20.22;54.16;99320.22;5051773;28;20017;-49
2021/09/29 06:40:44;;;;;;;8.75;2.92;;;;;;;20.18;53.51;99324.44;5051736;28;20491;-49
2021/09/29 06:43:10;;;;;;;24.40;6.75;;;;;;;20.28;53.21;99333.38;5050384;28;20033;-49
2021/09/29 06:45:36;;;;;;;12.43;2.53;;;;;;;20.78;52.38;99331.56;5051693;28;20025;-49
2021/09/29 06:48:02;;;;;;;12.13;3.65;;;;;;;21.20;51.30;99328.22;5051721;28;20025;-49
2021/09/29 06:50:28;;;;;;;23.85;6.68;;;;;;;21.66;50.46;99333.94;5050371;28;20029;-48
2021/09/29 06:52:54;;;;;;;16.90;4.32;;;;;;;22.28;48.89;99326.28;5051586;28;20051;-49
2021/09/29 06:55:19;;;;;;;17.05;3.45;;;;;;;22.91;47.13;99328.84;5051851;28;20025;-49
2021/09/29 06:57:45;;;;;;;11.15;2.53;;;;;;;23.33;46.00;99325.94;5051524;28;20029;-49
2021/09/29 07:00:13;;;;;;;21.92;4.57;;;;;;;23.73;45.09;99329.66;5050172;28;20021;-49
2021/09/29 07:02:44;;;;;;;11.23;3.30;;;;;;;24.15;43.56;99332.22;5051591;28;20029;-49
2021/09/29 07:05:11;;;;;;;20.70;3.88;;;;;;;24.37;43.33;99332.69;5051789;28;20445;-49
2021/09/29 07:07:37;;;;;;;17.95;4.32;;;;;;;24.79;42.42;99336.81;5051508;28;20031;-49
2021/09/29 07:10:04;;;;;;;16.65;3.70;;;;;;;25.07;41.70;99335.25;5051390;28;20104;-49
2021/09/29 07:12:30;;;;;;;16.83;3.35;;;;;;;25.54;40.94;99324.16;5050247;28;20394;-49
2021/09/29 07:14:56;;;;;;;14.23;3.75;;;;;;;26.07;40.20;99330.31;5051425;28;20025;-49
2021/09/29 07:17:24;;;;;;;15.60;4.85;;;;;;;26.49;39.51;99336.81;5051672;28;20041;-49
2021/09/29 07:19:55;;;;;;;19.85;5.13;;;;;;;26.95;38.07;99329.19;5051353;28;20104;-49
2021/09/29 07:22:20;;;;;;;30.20;4.60;;;;;;;27.22;37.58;99344.66;5051434;28;20120;-49
2021/09/29 07:24:46;;;;;;;36.50;5.05;;;;;;;27.37;37.23;99343.66;5049799;28;20128;-49
2021/09/29 07:27:12;;;;;;;15.30;5.07;;;;;;;27.73;36.95;99335.72;5051294;28;20017;-50
2021/09/29 07:29:38;;;;;;;28.83;5.22;;;;;;;27.84;36.63;99349.81;5051333;28;20033;-50
2021/09/29 07:32:04;;;;;;;7.95;3.03;;;;;;;27.70;35.96;99344.41;5051139;28;20017;-50
2021/09/29 07:34:30;;;;;;;9.80;2.20;;;;;;;26.95;37.08;99345.38;5054372;28;20063;-49
2021/09/29 07:36:56;;;;;;;16.17;4.75;;;;;;;25.98;38.56;99348.19;5053721;28;20028;-50
2021/09/29 07:39:22;;;;;;;12.50;3.40;;;;;;;25.71;39.17;99349.50;5054997;28;20025;-49
2021/09/29 07:41:48;;;;;;;18.60;2.65;;;;;;;26.23;38.62;99349.00;5053621;28;20403;-49
2021/09/29 07:44:13;;;;;;;7.47;2.20;;;;;;;26.96;36.95;99347.75;5054988;28;20067;-50
2021/09/29 07:46:39;;;;;;;18.00;4.30;;;;;;;27.65;36.28;99355.31;5053540;28;20115;-50
2021/09/29 07:49:05;;;;;;;17.50;5.80;;;;;;;28.25;35.11;99354.44;5054846;28;20029;-50
2021/09/29 07:51:31;;;;;;;19.80;4.95;;;;;;;28.73;34.21;99353.97;5054645;28;20029;-49
2021/09/29 07:53:56;;;;;;;12.80;3.38;;;;;;;28.97;33.68;99359.09;5053469;28;20434;-50
2021/09/29 07:56:25;;;;;;;17.40;2.55;;;;;;;29.12;33.41;99363.41;5054734;28;20055;-49
2021/09/29 07:58:51;;;;;;;11.48;2.47;;;;;;;29.64;32.91;99360.19;5054678;28;20025;-49
2021/09/29 08:01:17;;;;;;;16.63;2.88;;;;;;;30.19;31.97;99359.81;5053292;28;20541;-49
2021/09/29 08:03:44;;;;;;;13.48;3.63;;;;;;;30.33;32.39;99358.94;5053259;28;20037;-50
2021/09/29 08:06:11;;;;;;;12.68;2.80;;;;;;;30.63;31.73;99359.94;5054499;28;20023;-50
2021/09/29 08:08:37;;;;;;;9.25;2.17;;;;;;;30.75;31.41;99362.81;5054492;28;20075;-50
2021/09/29 08:11:03;;;;;;;9.82;2.35;;;;;;;31.01;30.86;99365.56;5053072;28;20025;-50
2021/09/29 08:13:29;;;;;;;14.63;3.13;;;;;;;31.31;30.31;99368.41;5054341;28;20451;-50
2021/09/29 08:15:58;;;;;;;21.88;3.28;;;;;;;31.81;29.86;99367.81;5054324;28;20095;-50
2021/09/29 08:18:24;;;;;;;7.25;1.90;;;;;;;32.15;29.06;99376.16;5054429;28;20052;-49
2021/09/29 08:20:52;;;;;;;16.45;3.20;;;;;;;32.44;28.60;99373.44;5054205;28;20112;-49
2021/09/29 08:23:26;;;;;;;16.33;2.38;;;;;;;32.72;28.37;99375.66;5054214;28;20139;-50
2021/09/29 08:26:29;;;;;;;13.20;2.33;;;;;;;32.83;28.38;99374.13;5054017;28;20049;-50
2021/09/29 08:31:37;;;;;;;8.98;2.78;;;;;;;33.35;26.94;99381.06;5054018;28;20119;-51
2021/09/29 08:37:04;;;;;;;6.57;1.80;;;;;;;32.99;26.08;99387.13;5053972;28;20029;-50
2021/09/29 08:39:43;;;;;;;9.77;2.50;;;;;;;33.35;25.87;99385.72;5053607;28;20067;-50
2021/09/29 08:42:20;;;;;;;28.30;16.33;;;;;;;33.67;25.32;99395.00;5054105;28;20546;-50
2021/09/29 08:44:55;;;;;;;22.58;7.82;;;;;;;33.95;25.62;99389.72;5053257;28;20114;-50
2021/09/29 08:47:50;;;;;;;11.75;3.10;;;;;;;34.26;24.41;99393.03;5053800;28;20483;-50
2021/09/29 08:50:29;;;;;;;13.63;2.72;;;;;;;34.54;23.83;99393.88;5053745;28;20055;-50
2021/09/29 08:55:46;;;;;;;8.13;2.17;;;;;;;34.55;23.71;99391.94;5053652;28;20067;-50
2021/09/29 09:17:36;;;;;;;12.68;2.60;;;;;;;35.29;22.76;99389.03;5053192;28;20094;-50
2021/09/29 09:20:20;;;;;;;9.80;2.38;;;;;;;35.51;22.39;99391.19;5052987;28;20108;-49
2021/09/29 09:22:50;;;;;;;10.60;2.60;;;;;;;35.69;22.11;99386.22;5053067;28;20032;-50
2021/09/29 09:25:18;;;;;;;12.30;2.58;;;;;;;35.75;21.62;99389.47;5052761;28;20053;-50
2021/09/29 09:27:47;;;;;;;8.40;1.70;;;;;;;35.54;20.85;99385.03;5051659;28;20025;-49
2021/09/29 09:30:31;;;;;;;7.18;2.65;;;;;;;35.61;20.65;99392.59;5051614;28;20043;-50
2021/09/29 09:32:57;;;;;;;7.72;1.45;;;;;;;35.65;20.03;99388.03;5051453;28;20116;-51
2021/09/29 09:35:39;;;;;;;8.68;1.85;;;;;;;35.54;20.48;99393.22;5052740;28;20561;-50
2021/09/29 09:38:12;;;;;;;7.43;1.58;;;;;;;35.64;20.91;99391.91;5052818;28;20120;-50
2021/09/29 09:40:38;;;;;;;6.95;1.50;;;;;;;35.70;20.68;99392.47;5052771;28;20075;-50
2021/09/29 09:43:04;;;;;;;6.47;1.67;;;;;;;35.53;20.86;99397.09;5034732;28;20411;-50
2021/09/29 09:45:48;;;;;;;14.45;2.13;;;;;;;35.30;20.91;99394.16;5052612;28;20064;-50
2021/09/29 09:48:23;;;;;;;5.90;1.23;;;;;;;35.46;20.32;99401.59;5052693;28;20028;-50
2021/09/29 09:50:53;;;;;;;9.60;1.85;;;;;;;35.60;20.39;99393.78;5051194;28;20116;-50
2021/09/29 09:53:20;;;;;;;23.83;3.35;;;;;;;35.65;20.38;99392.69;5052405;28;20032;-50
2021/09/29 09:55:45;;;;;;;7.60;1.50;;;;;;;35.67;19.96;99393.97;5052324;28;20033;-50
2021/09/29 09:58:11;;;;;;;4.70;1.42;;;;;;;35.54;20.28;99393.22;5052421;28;20108;-50
2021/09/29 10:00:37;;;;;;;14.05;1.90;;;;;;;35.88;19.10;99391.00;5052325;28;20031;-50
2021/09/29 10:03:05;;;;;;;9.20;1.70;;;;;;;35.66;19.22;99386.13;5051035;28;20040;-50
2021/09/29 10:05:31;;;;;;;4.40;1.25;;;;;;;35.53;19.38;99393.56;5051001;28;20501;-50
2021/09/29 10:07:59;;;;;;;8.25;3.67;;;;;;;35.43;19.64;99392.16;5052271;28;20116;-50
2021/09/29 10:13:50;;;;;;;8.52;1.58;;;;;;;34.62;19.94;99392.97;5051053;28;20033;-50
2021/09/29 10:27:21;;;;;;;7.38;1.90;;;;;;;33.88;20.96;99386.72;5051874;28;20025;-50
2021/09/29 10:29:56;;;;;;;5.93;1.10;;;;;;;32.75;21.72;99385.06;5050560;28;20127;-50
2021/09/29 10:32:27;;;;;;;3.70;1.20;;;;;;;31.99;22.69;99384.81;5051800;28;20494;-50
2021/09/29 10:40:40;;;;;;;6.75;1.42;;;;;;;32.59;22.58;99379.44;5040352;28;20118;-50
2021/09/29 10:46:53;;;;;;;4.00;1.92;;;;;;;34.08;21.26;99386.97;5051694;28;20033;-47
2021/09/29 11:28:24;;;;;;;61.05;5.22;;;;;;;33.52;21.42;99377.34;5055514;28;20520;-47
2021/09/29 11:31:05;;;;;;;4.90;1.70;;;;;;;33.50;20.77;99381.53;5055195;28;20032;-47
2021/09/29 12:08:49;;;;;;;;;;;;;;;31.18;23.58;99366.66;5055473;28;20040;-50
2021/09/29 12:11:44;;;;;;;34.72;4.90;;;;;;;30.33;25.06;99367.84;5054706;28;19967;-50
2021/09/29 12:14:13;;;;;;;9.63;1.98;;;;;;;29.79;25.44;99367.16;5054086;28;20045;-49
2021/09/29 12:16:38;;;;;;;5.22;1.38;;;;;;;29.27;25.64;99368.41;5053320;28;20033;-49
2021/09/29 12:19:10;;;;;;;9.40;1.52;;;;;;;28.75;26.73;99361.78;5053696;28;20074;-49
2021/09/29 12:21:53;;;;;;;7.53;1.90;;;;;;;28.39;27.79;99362.53;5053796;28;20029;-49
2021/09/29 12:24:32;;;;;;;5.97;1.63;;;;;;;27.88;28.92;99367.84;5054064;28;20095;-49
2021/09/29 12:27:00;;;;;;;9.13;1.90;;;;;;;27.85;28.73;99368.41;5054218;28;20087;-49
2021/09/29 12:29:47;;;;;;;5.32;1.27;;;;;;;27.63;29.07;99368.28;5054155;28;20029;-49
2021/09/29 12:37:52;;;;;;;7.20;1.88;;;;;;;26.57;30.83;99375.75;5053998;28;20107;-49
2021/09/29 12:40:18;;;;;;;4.40;1.70;;;;;;;26.52;30.64;99370.41;5052629;28;20036;-49
2021/09/29 12:42:44;;;;;;;10.85;1.90;;;;;;;26.68;30.58;99368.34;5053902;28;20041;-49
2021/09/29 12:45:10;;;;;;;9.32;1.95;;;;;;;26.89;30.42;99369.66;5052543;28;20037;-49
2021/09/29 12:47:44;;;;;;;9.93;2.72;;;;;;;27.22;30.17;99368.91;5052503;28;20402;-50
2021/09/29 12:50:15;;;;;;;9.02;2.25;;;;;;;28.31;29.54;99369.44;5053725;28;20021;-50
2021/09/29 12:52:56;;;;;;;7.05;1.48;;;;;;;29.21;27.60;99366.94;5053641;28;20033;-49
2021/09/29 12:55:31;;;;;;;186.70;162.75;;;;;;;29.13;27.26;99362.28;5053636;28;20115;-50
2021/09/29 12:57:56;;;;;;;63.78;46.53;;;;;;;29.04;27.29;99358.72;5053520;28;20044;-49
2021/09/29 13:00:22;;;;;;;107.80;95.95;;;;;;;29.39;26.97;99358.97;5053518;28;20025;-49
2021/09/29 13:02:48;;;;;;;186.43;130.32;;;;;;;29.81;26.88;99362.25;5053477;28;20083;-49
2021/09/29 13:05:14;;;;;;;26.35;15.95;;;;;;;30.91;25.62;99351.50;5052088;28;20032;-49
2021/09/29 13:07:40;;;;;;;10.20;3.10;;;;;;;31.17;24.73;99354.19;5052020;28;20021;-50
2021/09/29 13:10:06;;;;;;;12.40;4.80;;;;;;;30.72;25.51;99355.31;5053337;28;20020;-50
2021/09/29 13:12:32;;;;;;;10.52;2.50;;;;;;;31.09;25.26;99355.84;5053207;28;20028;-49
2021/09/29 13:14:58;;;;;;;15.38;3.67;;;;;;;31.53;24.98;99353.03;5051927;28;20522;-50
2021/09/29 13:17:25;;;;;;;9.27;2.17;;;;;;;31.76;24.60;99353.63;5053218;28;20028;-49
2021/09/29 13:19:54;;;;;;;15.32;2.70;;;;;;;31.79;24.53;99355.66;5053079;28;20067;-50
2021/09/29 13:22:23;;;;;;;6.90;1.65;;;;;;;31.73;24.55;99359.69;5053195;28;20398;-50
2021/09/29 13:25:00;;;;;;;17.95;3.25;;;;;;;31.54;24.67;99365.50;5052826;28;20052;-50
2021/09/29 13:38:10;;;;;;;17.93;3.03;;;;;;;29.15;26.94;99365.47;5052900;28;20181;-50
2021/09/29 13:40:36;;;;;;;6.55;0.90;;;;;;;28.96;26.46;99362.13;5052714;28;20017;-50
2021/09/29 13:43:02;;;;;;;9.10;1.88;;;;;;;28.52;26.95;99367.16;5051409;28;20029;-49
2021/09/29 13:45:28;;;;;;;5.13;0.90;;;;;;;28.36;27.46;99363.94;5052668;28;20021;-49
2021/09/29 13:47:55;;;;;;;2.63;0.70;;;;;;;28.31;26.98;99372.13;5052633;28;20483;-49
2021/09/29 13:50:21;;;;;;;3.13;0.88;;;;;;;28.19;27.77;99366.44;5052549;28;20063;-49
2021/09/29 13:52:46;;;;;;;3.22;0.90;;;;;;;27.95;28.53;99364.75;5051122;28;20048;-49